sensor_id;sensor_type;location;lat;lon;timestamp;temperature;humidity
9941;DHT22;5009;50.656;7.188;2022-08-19T00:01:36;19.60;99.90
9941;DHT22;5009;50.656;7.188;2022-08-19T00:04:05;19.60;99.90
9941;DHT22;5009;50.656;7.188;2022-08-19T00:06:31;19.60;99.90
9941;DHT22;5009;50.656;7.188;2022-08-19T00:08:57;19.50;99.90
9941;DHT22;5009;50.656;7.188;2022-08-19T00:11:25;19.50;99.90
9941;DHT22;5009;50.656;7.188;2022-08-19T00:13:54;19.50;99.90
9941;DHT22;5009;50.656;7.188;2022-08-19T00:16:21;19.50;99.90
9941;DHT22;5009;50.656;7.188;2022-08-19T00:18:47;19.50;99.90
9941;DHT22;5009;50.656;7.188;2022-08-19T00:21:13;19.40;99.90
9941;DHT22;5009;50.656;7.188;2022-08-19T00:23:40;19.40;99.90
9941;DHT22;5009;50.656;7.188;2022-08-19T00:26:06;19.40;99.90
9941;DHT22;5009;50.656;7.188;2022-08-19T00:28:32;19.40;99.90
9941;DHT22;5009;50.656;7.188;2022-08-19T00:30:59;19.40;99.90
9941;DHT22;5009;50.656;7.188;2022-08-19T00:33:25;19.40;99.90
9941;DHT22;5009;50.656;7.188;2022-08-19T00:35:51;19.40;99.90
9941;DHT22;5009;50.656;7.188;2022-08-19T00:38:16;19.30;99.90
9941;DHT22;5009;50.656;7.188;2022-08-19T00:40:43;19.30;99.90
9941;DHT22;5009;50.656;7.188;2022-08-19T00:43:12;19.30;99.90
9941;DHT22;5009;50.656;7.188;2022-08-19T00:45:39;19.30;99.90
9941;DHT22;5009;50.656;7.188;2022-08-19T00:48:07;19.30;99.90
9941;DHT22;5009;50.656;7.188;2022-08-19T00:50:33;19.30;99.90
9941;DHT22;5009;50.656;7.188;2022-08-19T00:52:59;19.30;99.90
9941;DHT22;5009;50.656;7.188;2022-08-19T00:55:26;19.30;99.90
9941;DHT22;5009;50.656;7.188;2022-08-19T00:58:04;19.30;99.90
9941;DHT22;5009;50.656;7.188;2022-08-19T01:00:32;19.20;99.90
9941;DHT22;5009;50.656;7.188;2022-08-19T01:03:02;19.10;99.90
9941;DHT22;5009;50.656;7.188;2022-08-19T01:05:29;19.10;99.90
9941;DHT22;5009;50.656;7.188;2022-08-19T01:07:56;19.10;99.90
9941;DHT22;5009;50.656;7.188;2022-08-19T01:10:25;19.20;99.90
9941;DHT22;5009;50.656;7.188;2022-08-19T01:12:52;19.10;99.90
9941;DHT22;5009;50.656;7.188;2022-08-19T01:15:22;19.10;99.90
9941;DHT22;5009;50.656;7.188;2022-08-19T01:17:49;19.10;99.90
9941;DHT22;5009;50.656;7.188;2022-08-19T01:20:19;19.10;99.90
9941;DHT22;5009;50.656;7.188;2022-08-19T01:22:51;19.10;99.90
9941;DHT22;5009;50.656;7.188;2022-08-19T01:25:39;19.00;99.90
9941;DHT22;5009;50.656;7.188;2022-08-19T01:28:07;19.00;99.90
9941;DHT22;5009;50.656;7.188;2022-08-19T01:30:34;19.00;99.90
9941;DHT22;5009;50.656;7.188;2022-08-19T01:33:00;18.90;99.90
9941;DHT22;5009;50.656;7.188;2022-08-19T01:35:29;18.90;99.90
9941;DHT22;5009;50.656;7.188;2022-08-19T01:38:08;18.90;99.90
9941;DHT22;5009;50.656;7.188;2022-08-19T01:40:38;18.90;99.90
9941;DHT22;5009;50.656;7.188;2022-08-19T01:43:04;18.90;99.90
9941;DHT22;5009;50.656;7.188;2022-08-19T01:45:32;18.80;99.90
9941;DHT22;5009;50.656;7.188;2022-08-19T01:47:58;18.80;99.90
9941;DHT22;5009;50.656;7.188;2022-08-19T01:50:24;18.80;99.90
9941;DHT22;5009;50.656;7.188;2022-08-19T01:52:51;18.70;99.90
9941;DHT22;5009;50.656;7.188;2022-08-19T01:55:19;18.80;99.90
9941;DHT22;5009;50.656;7.188;2022-08-19T01:57:50;18.80;99.90
9941;DHT22;5009;50.656;7.188;2022-08-19T02:00:18;18.80;99.90
9941;DHT22;5009;50.656;7.188;2022-08-19T02:02:44;18.80;99.90
9941;DHT22;5009;50.656;7.188;2022-08-19T02:05:10;18.80;99.90
9941;DHT22;5009;50.656;7.188;2022-08-19T02:07:37;18.80;99.90
9941;DHT22;5009;50.656;7.188;2022-08-19T02:10:04;18.70;99.90
9941;DHT22;5009;50.656;7.188;2022-08-19T02:12:31;18.70;99.90
9941;DHT22;5009;50.656;7.188;2022-08-19T02:14:56;18.70;99.90
9941;DHT22;5009;50.656;7.188;2022-08-19T02:17:22;18.70;99.90
9941;DHT22;5009;50.656;7.188;2022-08-19T02:19:47;18.60;99.90
9941;DHT22;5009;50.656;7.188;2022-08-19T02:22:14;18.60;99.90
9941;DHT22;5009;50.656;7.188;2022-08-19T02:24:39;18.60;99.90
9941;DHT22;5009;50.656;7.188;2022-08-19T02:27:05;18.60;99.90
9941;DHT22;5009;50.656;7.188;2022-08-19T02:29:31;18.60;99.90
9941;DHT22;5009;50.656;7.188;2022-08-19T02:31:57;18.60;99.90
9941;DHT22;5009;50.656;7.188;2022-08-19T02:34:22;18.50;99.90
9941;DHT22;5009;50.656;7.188;2022-08-19T02:36:50;18.50;99.90
9941;DHT22;5009;50.656;7.188;2022-08-19T02:39:16;18.50;99.90
9941;DHT22;5009;50.656;7.188;2022-08-19T02:41:41;18.50;99.90
9941;DHT22;5009;50.656;7.188;2022-08-19T02:44:07;18.50;99.90
9941;DHT22;5009;50.656;7.188;2022-08-19T02:46:33;18.50;99.90
9941;DHT22;5009;50.656;7.188;2022-08-19T02:49:06;18.50;99.90
9941;DHT22;5009;50.656;7.188;2022-08-19T02:51:35;18.50;99.90
9941;DHT22;5009;50.656;7.188;2022-08-19T02:54:02;18.50;99.90
9941;DHT22;5009;50.656;7.188;2022-08-19T02:56:27;18.40;99.90
9941;DHT22;5009;50.656;7.188;2022-08-19T02:58:57;18.40;99.90
9941;DHT22;5009;50.656;7.188;2022-08-19T03:01:31;18.40;99.90
9941;DHT22;5009;50.656;7.188;2022-08-19T03:03:59;18.40;99.90
9941;DHT22;5009;50.656;7.188;2022-08-19T03:06:26;18.40;99.90
9941;DHT22;5009;50.656;7.188;2022-08-19T03:08:52;18.40;99.90
9941;DHT22;5009;50.656;7.188;2022-08-19T03:11:24;18.30;99.90
9941;DHT22;5009;50.656;7.188;2022-08-19T03:13:50;18.30;99.90
9941;DHT22;5009;50.656;7.188;2022-08-19T03:16:18;18.30;99.90
9941;DHT22;5009;50.656;7.188;2022-08-19T03:18:44;18.30;99.90
9941;DHT22;5009;50.656;7.188;2022-08-19T03:21:14;18.30;99.90
9941;DHT22;5009;50.656;7.188;2022-08-19T03:23:40;18.20;99.90
9941;DHT22;5009;50.656;7.188;2022-08-19T03:26:05;18.20;99.90
9941;DHT22;5009;50.656;7.188;2022-08-19T03:28:32;18.20;99.90
9941;DHT22;5009;50.656;7.188;2022-08-19T03:31:00;18.20;99.90
9941;DHT22;5009;50.656;7.188;2022-08-19T03:33:27;18.20;99.90
9941;DHT22;5009;50.656;7.188;2022-08-19T03:36:08;18.20;99.90
9941;DHT22;5009;50.656;7.188;2022-08-19T03:38:40;18.20;99.90
9941;DHT22;5009;50.656;7.188;2022-08-19T03:41:08;18.20;99.90
9941;DHT22;5009;50.656;7.188;2022-08-19T03:43:38;18.20;99.90
9941;DHT22;5009;50.656;7.188;2022-08-19T03:46:13;18.10;99.90
9941;DHT22;5009;50.656;7.188;2022-08-19T03:48:40;18.10;99.90
9941;DHT22;5009;50.656;7.188;2022-08-19T03:51:07;18.10;99.90
9941;DHT22;5009;50.656;7.188;2022-08-19T03:53:34;18.10;99.90
9941;DHT22;5009;50.656;7.188;2022-08-19T03:56:01;18.00;99.90
9941;DHT22;5009;50.656;7.188;2022-08-19T03:58:28;18.00;99.90
9941;DHT22;5009;50.656;7.188;2022-08-19T04:00:57;18.00;99.90
9941;DHT22;5009;50.656;7.188;2022-08-19T04:03:24;18.00;99.90
9941;DHT22;5009;50.656;7.188;2022-08-19T04:05:50;18.00;99.90
9941;DHT22;5009;50.656;7.188;2022-08-19T04:08:16;18.00;99.90
9941;DHT22;5009;50.656;7.188;2022-08-19T04:10:46;17.90;99.90
9941;DHT22;5009;50.656;7.188;2022-08-19T04:13:12;17.90;99.90
9941;DHT22;5009;50.656;7.188;2022-08-19T04:15:41;17.90;99.90
9941;DHT22;5009;50.656;7.188;2022-08-19T04:18:09;17.90;99.90
9941;DHT22;5009;50.656;7.188;2022-08-19T04:20:43;17.90;99.90
9941;DHT22;5009;50.656;7.188;2022-08-19T04:23:09;17.90;99.90
9941;DHT22;5009;50.656;7.188;2022-08-19T04:25:43;17.80;99.90
9941;DHT22;5009;50.656;7.188;2022-08-19T04:28:11;17.80;99.90
9941;DHT22;5009;50.656;7.188;2022-08-19T04:30:45;17.80;99.90
9941;DHT22;5009;50.656;7.188;2022-08-19T04:33:12;17.80;99.90
9941;DHT22;5009;50.656;7.188;2022-08-19T04:35:45;17.70;99.90
9941;DHT22;5009;50.656;7.188;2022-08-19T04:38:13;17.70;99.90
9941;DHT22;5009;50.656;7.188;2022-08-19T04:40:49;17.70;99.90
9941;DHT22;5009;50.656;7.188;2022-08-19T04:43:35;17.70;99.90
9941;DHT22;5009;50.656;7.188;2022-08-19T04:46:09;17.80;99.90
9941;DHT22;5009;50.656;7.188;2022-08-19T04:48:36;17.80;99.90
9941;DHT22;5009;50.656;7.188;2022-08-19T04:51:07;17.80;99.90
9941;DHT22;5009;50.656;7.188;2022-08-19T04:53:35;17.80;99.90
9941;DHT22;5009;50.656;7.188;2022-08-19T04:56:07;17.80;99.90
9941;DHT22;5009;50.656;7.188;2022-08-19T04:58:36;17.90;99.90
9941;DHT22;5009;50.656;7.188;2022-08-19T05:01:02;17.90;99.90
9941;DHT22;5009;50.656;7.188;2022-08-19T05:03:29;17.90;99.90
9941;DHT22;5009;50.656;7.188;2022-08-19T05:06:08;18.00;99.90
9941;DHT22;5009;50.656;7.188;2022-08-19T05:08:36;18.00;99.90
9941;DHT22;5009;50.656;7.188;2022-08-19T05:11:08;18.10;99.90
9941;DHT22;5009;50.656;7.188;2022-08-19T05:13:34;18.10;99.90
9941;DHT22;5009;50.656;7.188;2022-08-19T05:16:00;18.20;99.90
9941;DHT22;5009;50.656;7.188;2022-08-19T05:18:25;18.20;99.90
9941;DHT22;5009;50.656;7.188;2022-08-19T05:21:15;18.30;99.90
9941;DHT22;5009;50.656;7.188;2022-08-19T05:24:02;18.40;99.90
9941;DHT22;5009;50.656;7.188;2022-08-19T05:26:27;18.60;99.90
9941;DHT22;5009;50.656;7.188;2022-08-19T05:28:53;18.70;99.90
9941;DHT22;5009;50.656;7.188;2022-08-19T05:31:19;18.70;99.90
9941;DHT22;5009;50.656;7.188;2022-08-19T05:33:45;18.80;99.90
9941;DHT22;5009;50.656;7.188;2022-08-19T05:36:10;18.90;99.90
9941;DHT22;5009;50.656;7.188;2022-08-19T05:38:36;19.00;99.90
9941;DHT22;5009;50.656;7.188;2022-08-19T05:41:09;19.00;99.90
9941;DHT22;5009;50.656;7.188;2022-08-19T05:43:36;19.10;99.90
9941;DHT22;5009;50.656;7.188;2022-08-19T05:46:02;19.20;99.90
9941;DHT22;5009;50.656;7.188;2022-08-19T05:48:29;19.40;99.90
9941;DHT22;5009;50.656;7.188;2022-08-19T05:50:55;19.60;99.90
9941;DHT22;5009;50.656;7.188;2022-08-19T05:53:22;19.80;99.90
9941;DHT22;5009;50.656;7.188;2022-08-19T05:55:47;20.00;99.90
9941;DHT22;5009;50.656;7.188;2022-08-19T05:58:13;20.00;99.90
9941;DHT22;5009;50.656;7.188;2022-08-19T06:00:38;20.10;99.90
9941;DHT22;5009;50.656;7.188;2022-08-19T06:03:05;20.10;99.90
9941;DHT22;5009;50.656;7.188;2022-08-19T06:05:31;20.20;99.90
9941;DHT22;5009;50.656;7.188;2022-08-19T06:07:57;20.20;99.90
9941;DHT22;5009;50.656;7.188;2022-08-19T06:10:24;20.20;99.90
9941;DHT22;5009;50.656;7.188;2022-08-19T06:12:49;20.20;99.90
9941;DHT22;5009;50.656;7.188;2022-08-19T06:15:15;20.20;99.90
9941;DHT22;5009;50.656;7.188;2022-08-19T06:17:41;20.10;99.90
9941;DHT22;5009;50.656;7.188;2022-08-19T06:20:11;20.10;99.90
9941;DHT22;5009;50.656;7.188;2022-08-19T06:25:06;20.20;99.90
9941;DHT22;5009;50.656;7.188;2022-08-19T06:27:31;20.20;99.90
9941;DHT22;5009;50.656;7.188;2022-08-19T06:29:58;20.20;99.90
9941;DHT22;5009;50.656;7.188;2022-08-19T06:32:24;20.30;99.90
9941;DHT22;5009;50.656;7.188;2022-08-19T06:34:49;20.30;99.90
9941;DHT22;5009;50.656;7.188;2022-08-19T06:37:15;20.30;99.90
9941;DHT22;5009;50.656;7.188;2022-08-19T06:39:42;20.30;99.90
9941;DHT22;5009;50.656;7.188;2022-08-19T06:42:09;20.40;99.90
9941;DHT22;5009;50.656;7.188;2022-08-19T06:44:37;20.50;99.90
9941;DHT22;5009;50.656;7.188;2022-08-19T06:47:05;20.60;99.90
9941;DHT22;5009;50.656;7.188;2022-08-19T06:49:32;20.70;99.90
9941;DHT22;5009;50.656;7.188;2022-08-19T06:51:58;20.80;99.90
9941;DHT22;5009;50.656;7.188;2022-08-19T06:54:24;20.90;99.90
9941;DHT22;5009;50.656;7.188;2022-08-19T06:56:51;20.90;99.90
9941;DHT22;5009;50.656;7.188;2022-08-19T06:59:19;21.00;99.90
9941;DHT22;5009;50.656;7.188;2022-08-19T07:01:48;21.10;99.90
9941;DHT22;5009;50.656;7.188;2022-08-19T07:04:17;21.20;99.90
9941;DHT22;5009;50.656;7.188;2022-08-19T07:06:44;21.60;99.90
9941;DHT22;5009;50.656;7.188;2022-08-19T07:09:12;22.00;99.90
9941;DHT22;5009;50.656;7.188;2022-08-19T07:11:38;22.60;99.90
9941;DHT22;5009;50.656;7.188;2022-08-19T07:14:03;23.40;99.90
9941;DHT22;5009;50.656;7.188;2022-08-19T07:16:30;24.10;99.90
9941;DHT22;5009;50.656;7.188;2022-08-19T07:18:56;24.90;99.90
9941;DHT22;5009;50.656;7.188;2022-08-19T07:21:25;26.20;97.90
9941;DHT22;5009;50.656;7.188;2022-08-19T07:23:53;27.40;94.70
9941;DHT22;5009;50.656;7.188;2022-08-19T07:26:25;28.80;91.80
9941;DHT22;5009;50.656;7.188;2022-08-19T07:28:51;29.50;89.30
9941;DHT22;5009;50.656;7.188;2022-08-19T07:31:21;30.10;87.00
9941;DHT22;5009;50.656;7.188;2022-08-19T07:33:48;30.50;84.20
9941;DHT22;5009;50.656;7.188;2022-08-19T07:36:17;31.10;81.40
9941;DHT22;5009;50.656;7.188;2022-08-19T07:38:46;32.20;77.80
9941;DHT22;5009;50.656;7.188;2022-08-19T07:41:17;32.80;73.00
9941;DHT22;5009;50.656;7.188;2022-08-19T07:43:42;33.40;70.20
9941;DHT22;5009;50.656;7.188;2022-08-19T07:46:09;34.50;66.50
9941;DHT22;5009;50.656;7.188;2022-08-19T07:48:34;35.00;62.70
9941;DHT22;5009;50.656;7.188;2022-08-19T07:51:04;35.40;60.90
9941;DHT22;5009;50.656;7.188;2022-08-19T07:53:31;35.40;59.10
9941;DHT22;5009;50.656;7.188;2022-08-19T07:55:58;35.30;58.40
9941;DHT22;5009;50.656;7.188;2022-08-19T07:58:36;34.60;58.10
9941;DHT22;5009;50.656;7.188;2022-08-19T08:01:03;34.70;58.20
9941;DHT22;5009;50.656;7.188;2022-08-19T08:03:29;34.30;58.10
9941;DHT22;5009;50.656;7.188;2022-08-19T08:06:14;33.50;58.70
9941;DHT22;5009;50.656;7.188;2022-08-19T08:08:59;33.20;59.30
9941;DHT22;5009;50.656;7.188;2022-08-19T08:11:42;33.00;59.60
9941;DHT22;5009;50.656;7.188;2022-08-19T08:14:08;32.80;60.10
9941;DHT22;5009;50.656;7.188;2022-08-19T08:16:36;32.70;59.90
9941;DHT22;5009;50.656;7.188;2022-08-19T08:19:04;32.50;60.30
9941;DHT22;5009;50.656;7.188;2022-08-19T08:21:31;32.30;60.10
9941;DHT22;5009;50.656;7.188;2022-08-19T08:23:57;32.50;60.20
9941;DHT22;5009;50.656;7.188;2022-08-19T08:26:23;32.40;59.90
9941;DHT22;5009;50.656;7.188;2022-08-19T08:28:50;32.30;59.70
9941;DHT22;5009;50.656;7.188;2022-08-19T08:31:16;32.10;60.40
9941;DHT22;5009;50.656;7.188;2022-08-19T08:33:43;31.90;60.20
9941;DHT22;5009;50.656;7.188;2022-08-19T08:36:09;31.80;60.50
9941;DHT22;5009;50.656;7.188;2022-08-19T08:38:35;31.70;60.90
9941;DHT22;5009;50.656;7.188;2022-08-19T08:41:22;31.90;61.10
9941;DHT22;5009;50.656;7.188;2022-08-19T08:43:53;31.70;60.50
9941;DHT22;5009;50.656;7.188;2022-08-19T08:46:24;31.70;60.90
9941;DHT22;5009;50.656;7.188;2022-08-19T08:51:36;31.40;61.60
9941;DHT22;5009;50.656;7.188;2022-08-19T08:54:05;31.30;61.90
9941;DHT22;5009;50.656;7.188;2022-08-19T08:56:32;30.60;61.00
9941;DHT22;5009;50.656;7.188;2022-08-19T08:59:04;30.30;63.60
9941;DHT22;5009;50.656;7.188;2022-08-19T09:01:33;30.50;63.70
9941;DHT22;5009;50.656;7.188;2022-08-19T09:03:58;30.60;63.80
9941;DHT22;5009;50.656;7.188;2022-08-19T09:07:15;30.30;63.80
9941;DHT22;5009;50.656;7.188;2022-08-19T09:09:45;30.00;64.00
9941;DHT22;5009;50.656;7.188;2022-08-19T09:14:50;29.80;66.10
9941;DHT22;5009;50.656;7.188;2022-08-19T09:17:23;29.70;66.20
9941;DHT22;5009;50.656;7.188;2022-08-19T09:22:37;29.60;67.40
9941;DHT22;5009;50.656;7.188;2022-08-19T09:25:04;29.70;66.70
9941;DHT22;5009;50.656;7.188;2022-08-19T09:27:30;29.60;66.30
9941;DHT22;5009;50.656;7.188;2022-08-19T09:29:56;29.30;66.40
9941;DHT22;5009;50.656;7.188;2022-08-19T09:32:22;29.30;66.90
9941;DHT22;5009;50.656;7.188;2022-08-19T09:34:49;29.30;67.30
9941;DHT22;5009;50.656;7.188;2022-08-19T09:37:14;29.30;67.90
9941;DHT22;5009;50.656;7.188;2022-08-19T09:39:40;29.40;68.20
9941;DHT22;5009;50.656;7.188;2022-08-19T09:42:07;29.50;68.20
9941;DHT22;5009;50.656;7.188;2022-08-19T09:44:38;29.60;68.00
9941;DHT22;5009;50.656;7.188;2022-08-19T09:47:04;29.50;67.60
9941;DHT22;5009;50.656;7.188;2022-08-19T09:49:30;29.40;66.60
9941;DHT22;5009;50.656;7.188;2022-08-19T09:51:56;29.00;67.20
9941;DHT22;5009;50.656;7.188;2022-08-19T09:54:22;29.00;68.00
9941;DHT22;5009;50.656;7.188;2022-08-19T09:56:48;28.80;68.20
9941;DHT22;5009;50.656;7.188;2022-08-19T09:59:14;28.80;68.80
9941;DHT22;5009;50.656;7.188;2022-08-19T10:01:39;28.50;68.50
9941;DHT22;5009;50.656;7.188;2022-08-19T10:04:05;28.50;70.10
9941;DHT22;5009;50.656;7.188;2022-08-19T10:06:36;28.50;70.00
9941;DHT22;5009;50.656;7.188;2022-08-19T10:09:02;28.30;69.80
9941;DHT22;5009;50.656;7.188;2022-08-19T10:11:30;28.30;70.30
9941;DHT22;5009;50.656;7.188;2022-08-19T10:13:56;28.20;70.20
9941;DHT22;5009;50.656;7.188;2022-08-19T10:16:23;28.40;70.90
9941;DHT22;5009;50.656;7.188;2022-08-19T10:18:49;28.50;70.80
9941;DHT22;5009;50.656;7.188;2022-08-19T10:21:22;28.50;70.40
9941;DHT22;5009;50.656;7.188;2022-08-19T10:23:50;28.50;70.20
9941;DHT22;5009;50.656;7.188;2022-08-19T10:26:19;28.70;71.40
9941;DHT22;5009;50.656;7.188;2022-08-19T10:28:45;28.70;70.00
9941;DHT22;5009;50.656;7.188;2022-08-19T10:31:15;28.60;69.40
9941;DHT22;5009;50.656;7.188;2022-08-19T10:33:42;28.60;70.60
9941;DHT22;5009;50.656;7.188;2022-08-19T10:36:10;28.40;70.30
9941;DHT22;5009;50.656;7.188;2022-08-19T10:38:37;28.20;70.20
9941;DHT22;5009;50.656;7.188;2022-08-19T10:41:22;28.20;70.20
9941;DHT22;5009;50.656;7.188;2022-08-19T10:43:51;28.20;70.20
9941;DHT22;5009;50.656;7.188;2022-08-19T10:46:21;28.20;70.20
9941;DHT22;5009;50.656;7.188;2022-08-19T10:48:47;28.30;70.10
9941;DHT22;5009;50.656;7.188;2022-08-19T10:51:13;28.30;71.10
9941;DHT22;5009;50.656;7.188;2022-08-19T10:53:58;28.50;71.10
9941;DHT22;5009;50.656;7.188;2022-08-19T10:56:25;28.50;70.70
9941;DHT22;5009;50.656;7.188;2022-08-19T10:59:09;28.50;70.00
9941;DHT22;5009;50.656;7.188;2022-08-19T11:01:35;28.60;70.10
9941;DHT22;5009;50.656;7.188;2022-08-19T11:04:02;28.40;68.30
9941;DHT22;5009;50.656;7.188;2022-08-19T11:06:29;28.50;68.10
9941;DHT22;5009;50.656;7.188;2022-08-19T11:08:56;28.30;67.20
9941;DHT22;5009;50.656;7.188;2022-08-19T11:11:22;28.30;68.20
9941;DHT22;5009;50.656;7.188;2022-08-19T11:13:48;28.20;68.20
9941;DHT22;5009;50.656;7.188;2022-08-19T11:16:20;28.20;68.30
9941;DHT22;5009;50.656;7.188;2022-08-19T11:18:50;28.20;68.70
9941;DHT22;5009;50.656;7.188;2022-08-19T11:21:19;28.30;69.40
9941;DHT22;5009;50.656;7.188;2022-08-19T11:23:48;28.40;70.20
9941;DHT22;5009;50.656;7.188;2022-08-19T11:26:14;28.50;69.20
9941;DHT22;5009;50.656;7.188;2022-08-19T11:28:40;28.30;68.50
9941;DHT22;5009;50.656;7.188;2022-08-19T11:31:14;28.30;67.50
9941;DHT22;5009;50.656;7.188;2022-08-19T11:33:40;28.30;66.60
9941;DHT22;5009;50.656;7.188;2022-08-19T11:36:06;28.20;66.60
9941;DHT22;5009;50.656;7.188;2022-08-19T11:38:33;28.20;66.00
9941;DHT22;5009;50.656;7.188;2022-08-19T11:41:01;28.20;66.40
9941;DHT22;5009;50.656;7.188;2022-08-19T11:43:27;28.20;65.80
9941;DHT22;5009;50.656;7.188;2022-08-19T11:45:54;28.30;64.30
9941;DHT22;5009;50.656;7.188;2022-08-19T11:48:21;28.40;63.60
9941;DHT22;5009;50.656;7.188;2022-08-19T11:50:52;28.20;63.60
9941;DHT22;5009;50.656;7.188;2022-08-19T11:53:18;28.10;64.80
9941;DHT22;5009;50.656;7.188;2022-08-19T11:55:46;28.10;64.20
9941;DHT22;5009;50.656;7.188;2022-08-19T11:58:13;27.90;63.80
9941;DHT22;5009;50.656;7.188;2022-08-19T12:00:40;27.90;64.70
9941;DHT22;5009;50.656;7.188;2022-08-19T12:03:06;28.00;64.70
9941;DHT22;5009;50.656;7.188;2022-08-19T12:05:32;28.10;63.90
9941;DHT22;5009;50.656;7.188;2022-08-19T12:07:57;28.20;64.20
9941;DHT22;5009;50.656;7.188;2022-08-19T12:10:23;28.20;64.40
9941;DHT22;5009;50.656;7.188;2022-08-19T12:12:50;28.10;63.00
9941;DHT22;5009;50.656;7.188;2022-08-19T12:15:15;28.10;62.80
9941;DHT22;5009;50.656;7.188;2022-08-19T12:17:42;28.20;63.00
9941;DHT22;5009;50.656;7.188;2022-08-19T12:20:10;28.30;61.80
9941;DHT22;5009;50.656;7.188;2022-08-19T12:22:39;28.10;61.50
9941;DHT22;5009;50.656;7.188;2022-08-19T12:25:07;27.90;61.70
9941;DHT22;5009;50.656;7.188;2022-08-19T12:27:33;27.80;62.90
9941;DHT22;5009;50.656;7.188;2022-08-19T12:30:01;28.00;62.80
9941;DHT22;5009;50.656;7.188;2022-08-19T12:32:27;28.10;62.30
9941;DHT22;5009;50.656;7.188;2022-08-19T12:34:52;28.20;62.20
9941;DHT22;5009;50.656;7.188;2022-08-19T12:37:18;28.10;62.30
9941;DHT22;5009;50.656;7.188;2022-08-19T12:39:43;28.10;62.20
9941;DHT22;5009;50.656;7.188;2022-08-19T12:42:11;28.20;63.20
9941;DHT22;5009;50.656;7.188;2022-08-19T12:44:38;28.30;62.90
9941;DHT22;5009;50.656;7.188;2022-08-19T12:47:05;28.30;62.80
9941;DHT22;5009;50.656;7.188;2022-08-19T12:49:32;28.30;62.40
9941;DHT22;5009;50.656;7.188;2022-08-19T12:52:03;28.40;62.30
9941;DHT22;5009;50.656;7.188;2022-08-19T12:54:29;28.40;61.80
9941;DHT22;5009;50.656;7.188;2022-08-19T12:56:58;28.40;62.10
9941;DHT22;5009;50.656;7.188;2022-08-19T12:59:25;28.40;61.70
9941;DHT22;5009;50.656;7.188;2022-08-19T13:01:51;28.20;60.10
9941;DHT22;5009;50.656;7.188;2022-08-19T13:04:16;27.80;60.60
9941;DHT22;5009;50.656;7.188;2022-08-19T13:06:42;27.70;61.60
9941;DHT22;5009;50.656;7.188;2022-08-19T13:09:08;27.60;63.00
9941;DHT22;5009;50.656;7.188;2022-08-19T13:11:34;27.60;63.90
9941;DHT22;5009;50.656;7.188;2022-08-19T13:14:01;27.70;64.60
9941;DHT22;5009;50.656;7.188;2022-08-19T13:16:27;27.70;64.80
9941;DHT22;5009;50.656;7.188;2022-08-19T13:18:54;27.80;64.90
9941;DHT22;5009;50.656;7.188;2022-08-19T13:21:24;27.80;64.70
9941;DHT22;5009;50.656;7.188;2022-08-19T13:23:50;27.90;64.50
9941;DHT22;5009;50.656;7.188;2022-08-19T13:26:16;27.90;64.50
9941;DHT22;5009;50.656;7.188;2022-08-19T13:28:43;28.00;63.80
9941;DHT22;5009;50.656;7.188;2022-08-19T13:31:31;28.00;64.00
9941;DHT22;5009;50.656;7.188;2022-08-19T13:34:16;27.80;63.50
9941;DHT22;5009;50.656;7.188;2022-08-19T13:36:42;27.80;63.50
9941;DHT22;5009;50.656;7.188;2022-08-19T13:39:07;27.60;61.70
9941;DHT22;5009;50.656;7.188;2022-08-19T13:41:34;27.40;61.70
9941;DHT22;5009;50.656;7.188;2022-08-19T13:44:00;27.30;62.10
9941;DHT22;5009;50.656;7.188;2022-08-19T13:46:27;27.30;61.90
9941;DHT22;5009;50.656;7.188;2022-08-19T13:48:54;27.40;62.40
9941;DHT22;5009;50.656;7.188;2022-08-19T13:51:20;27.30;61.40
9941;DHT22;5009;50.656;7.188;2022-08-19T13:53:45;27.30;61.60
9941;DHT22;5009;50.656;7.188;2022-08-19T13:56:14;27.30;61.40
9941;DHT22;5009;50.656;7.188;2022-08-19T13:58:40;27.30;61.10
9941;DHT22;5009;50.656;7.188;2022-08-19T14:01:06;27.30;60.40
9941;DHT22;5009;50.656;7.188;2022-08-19T14:03:33;27.30;60.10
9941;DHT22;5009;50.656;7.188;2022-08-19T14:06:00;27.20;59.90
9941;DHT22;5009;50.656;7.188;2022-08-19T14:08:26;27.20;60.50
9941;DHT22;5009;50.656;7.188;2022-08-19T14:10:53;27.20;60.90
9941;DHT22;5009;50.656;7.188;2022-08-19T14:13:21;27.10;60.10
9941;DHT22;5009;50.656;7.188;2022-08-19T14:15:47;27.10;60.80
9941;DHT22;5009;50.656;7.188;2022-08-19T14:18:13;27.10;60.30
9941;DHT22;5009;50.656;7.188;2022-08-19T14:20:39;27.10;60.50
9941;DHT22;5009;50.656;7.188;2022-08-19T14:23:05;27.10;61.90
9941;DHT22;5009;50.656;7.188;2022-08-19T14:25:31;27.20;61.10
9941;DHT22;5009;50.656;7.188;2022-08-19T14:27:57;27.20;60.80
9941;DHT22;5009;50.656;7.188;2022-08-19T14:30:25;27.20;61.10
9941;DHT22;5009;50.656;7.188;2022-08-19T14:32:54;27.20;61.80
9941;DHT22;5009;50.656;7.188;2022-08-19T14:35:20;27.30;61.40
9941;DHT22;5009;50.656;7.188;2022-08-19T14:37:48;27.30;60.80
9941;DHT22;5009;50.656;7.188;2022-08-19T14:40:17;27.30;60.30
9941;DHT22;5009;50.656;7.188;2022-08-19T14:42:43;27.30;60.10
9941;DHT22;5009;50.656;7.188;2022-08-19T14:45:11;27.30;59.50
9941;DHT22;5009;50.656;7.188;2022-08-19T14:47:37;27.30;59.50
9941;DHT22;5009;50.656;7.188;2022-08-19T14:50:04;27.30;59.40
9941;DHT22;5009;50.656;7.188;2022-08-19T14:52:31;27.20;59.00
9941;DHT22;5009;50.656;7.188;2022-08-19T14:54:57;27.10;59.00
9941;DHT22;5009;50.656;7.188;2022-08-19T14:57:22;27.10;59.10
9941;DHT22;5009;50.656;7.188;2022-08-19T14:59:48;27.20;59.40
9941;DHT22;5009;50.656;7.188;2022-08-19T15:02:14;27.30;59.60
9941;DHT22;5009;50.656;7.188;2022-08-19T15:04:39;27.30;59.60
9941;DHT22;5009;50.656;7.188;2022-08-19T15:07:05;27.30;59.50
9941;DHT22;5009;50.656;7.188;2022-08-19T15:09:31;27.20;58.90
9941;DHT22;5009;50.656;7.188;2022-08-19T15:11:57;27.10;59.10
9941;DHT22;5009;50.656;7.188;2022-08-19T15:14:25;27.20;59.10
9941;DHT22;5009;50.656;7.188;2022-08-19T15:16:51;27.30;59.10
9941;DHT22;5009;50.656;7.188;2022-08-19T15:19:16;27.30;59.30
9941;DHT22;5009;50.656;7.188;2022-08-19T15:21:42;27.30;58.80
9941;DHT22;5009;50.656;7.188;2022-08-19T15:24:08;27.30;58.80
9941;DHT22;5009;50.656;7.188;2022-08-19T15:26:34;27.10;58.70
9941;DHT22;5009;50.656;7.188;2022-08-19T15:29:00;27.10;58.90
9941;DHT22;5009;50.656;7.188;2022-08-19T15:31:26;27.00;59.10
9941;DHT22;5009;50.656;7.188;2022-08-19T15:33:53;27.00;59.10
9941;DHT22;5009;50.656;7.188;2022-08-19T15:36:21;27.00;59.20
9941;DHT22;5009;50.656;7.188;2022-08-19T15:38:48;26.90;59.10
9941;DHT22;5009;50.656;7.188;2022-08-19T15:41:24;26.80;59.00
9941;DHT22;5009;50.656;7.188;2022-08-19T15:43:59;26.90;59.00
9941;DHT22;5009;50.656;7.188;2022-08-19T15:46:27;26.80;58.90
9941;DHT22;5009;50.656;7.188;2022-08-19T15:48:54;26.70;58.80
9941;DHT22;5009;50.656;7.188;2022-08-19T15:51:21;26.80;59.20
9941;DHT22;5009;50.656;7.188;2022-08-19T15:53:47;26.80;59.20
9941;DHT22;5009;50.656;7.188;2022-08-19T15:56:13;26.80;59.10
9941;DHT22;5009;50.656;7.188;2022-08-19T15:58:39;26.80;58.60
9941;DHT22;5009;50.656;7.188;2022-08-19T16:01:23;26.80;58.70
9941;DHT22;5009;50.656;7.188;2022-08-19T16:04:07;26.80;58.70
9941;DHT22;5009;50.656;7.188;2022-08-19T16:06:54;26.80;58.50
9941;DHT22;5009;50.656;7.188;2022-08-19T16:09:23;26.80;58.40
9941;DHT22;5009;50.656;7.188;2022-08-19T16:11:48;26.80;58.30
9941;DHT22;5009;50.656;7.188;2022-08-19T16:14:16;26.80;58.40
9941;DHT22;5009;50.656;7.188;2022-08-19T16:16:43;26.80;58.70
9941;DHT22;5009;50.656;7.188;2022-08-19T16:19:11;26.80;58.60